Airfield and Fleet Status

Tuesday 19 February 2019

Webcam – SSW (hi-res timelapse)

Webcam SSWGround state:   good.

Two Seaters 

K-21 – KFY
K-21 – HTV U/S.
Perkoz – PZ
Puchacz – JEC
Falke G-BODU U/S. Now at Crowland for annual until late March.
  (✔ = Serviceable)

Webcam – WSW (hi-res timelapse)

Webcam WSWPictures last updated: Today at 18:06

Single Seaters 

Junior – HEK
Junior – HDU derigged in trailer/in hanger, will need test flight.
ASW24 – FLY
Pegasus – FVV U/S. In workshop for Annual.
Discus WL – DM
ASW19 – CU

Weather – at Cambridge Airport (EGSC)

Valid: Today at 1750Z
Temp / Dewpoint: 8° / 2° C
Cloud: 1 – 2 oktas at 4,500 ft
Wind: 200° – 5 kt
Visibility: More than 10Km
24hr QNH trend: Surface Pressure Trend1017 hPa
(source: ADDS)
GRL weather station Local weather

Notes from the office

&nbsp

Winch

Skylaunch ‘S’ U/S. preferred winch to use “T”.
Skylaunch ‘T’ preferred winch to use “T”.

Tugs

Robin G-OCGC back from Annual. Fully Serviceable.
Robin G-ELSB Dunstable on annual.

Cambridge METAR & TAF

Available data for EGSC from the past 2 hours
CAMBRIDGE
TAF
TAF EGSC 191659Z 1918/1921 26010KT 9999 FEW040 BECMG 1918/1921 20008KT

Live Gliding Map

This map is produced by the Open Glider Network